Archival Weather

Republic

Farmingdale, New York (KFRG)

Report from: Friday, February 23, 2024 8:53 PM EST
Current time: Monday, June 24, 2024 6:45 AM EDT

Current weather – Weather history – Daily summaries
Weather forecast

Temperature6.7°C (44.1°F)
Wind chill4.9°C (40.7°F)
Dew point3.3°C (37.9°F)
Winds 5 kts (2.6 m/s, 5.8 mph) North-Northwest (330°)
Visibility10 mi. (16.1 km)
Clouds Sky clear
Altimeter29.47 in.Hg (998 mB)
Relative humidity79 %
Density altitude-356 ft. (-109 m)
Sea-level pressure99.8 kPa (998 mB, 29.47 in.Hg)
Remarks Fully automated report
Automated weather observing station without precipitation discriminator
Flight conditions Visual Meteorological Conditions
Raw dataKFRG 240153Z AUTO 33005KT 10SM CLR 07/03 A2947 RMK AO1 SLP978 T00670033
An error has occurred. This application may no longer respond until reloaded. Reload 🗙